Time;durP1;ratioP1;P1;durP2;ratioP2;P2;SDS_P1;SDS_P2;PMS_P1;PMS_P2;Temp;Humidity;BMP_temperature;BMP_pressure;BME280_temperature;BME280_humidity;BME280_pressure;Samples;Min_cycle;Max_cycle;Signal;HPM_P1;HPM_P2
2022/01/19 00:01:08;;;;;;;9.10;6.80;;;4.40;99.90;;;;;;5134086;27;20168;-54
2022/01/19 00:03:33;;;;;;;11.68;6.05;;;4.30;99.90;;;;;;5134106;27;20161;-53
2022/01/19 00:05:59;;;;;;;8.57;5.93;;;4.30;99.90;;;;;;5134342;27;20163;-54
2022/01/19 00:08:26;;;;;;;14.18;6.03;;;4.30;99.90;;;;;;5134226;27;20200;-55
2022/01/19 00:10:52;;;;;;;11.25;7.63;;;4.30;99.90;;;;;;5133309;27;20204;-52
2022/01/19 00:13:19;;;;;;;9.48;6.43;;;4.30;99.90;;;;;;5133816;27;20587;-55
2022/01/19 00:15:45;;;;;;;10.30;5.45;;;4.30;99.90;;;;;;5133681;27;20227;-55
2022/01/19 00:18:11;;;;;;;10.93;5.65;;;4.30;99.90;;;;;;5133973;27;20206;-55
2022/01/19 00:20:37;;;;;;;7.63;6.05;;;4.30;99.90;;;;;;5133765;27;20609;-55
2022/01/19 00:23:04;;;;;;;9.25;5.40;;;4.40;99.90;;;;;;5133664;27;20172;-53
2022/01/19 00:25:30;;;;;;;11.02;5.60;;;4.30;99.90;;;;;;5134226;27;20168;-54
2022/01/19 00:27:56;;;;;;;8.15;5.93;;;4.30;99.90;;;;;;5133965;27;20593;-53
2022/01/19 00:30:22;;;;;;;10.07;5.50;;;4.40;99.90;;;;;;5133545;27;20195;-55
2022/01/19 00:32:47;;;;;;;8.40;5.32;;;4.30;99.90;;;;;;5133443;27;20262;-54
2022/01/19 00:35:13;;;;;;;8.45;5.78;;;4.30;99.90;;;;;;5133672;27;20197;-54
2022/01/19 00:37:41;;;;;;;11.18;5.55;;;4.30;99.90;;;;;;5133390;27;20558;-55
2022/01/19 00:40:09;;;;;;;7.68;5.15;;;4.20;99.90;;;;;;5133306;27;20247;-55
2022/01/19 00:42:36;;;;;;;8.23;4.90;;;4.20;99.90;;;;;;5133416;27;20620;-53
2022/01/19 00:45:04;;;;;;;9.68;6.55;;;4.20;99.90;;;;;;5133381;27;20171;-52
2022/01/19 00:47:30;;;;;;;9.93;5.78;;;4.00;99.90;;;;;;5133609;27;20635;-55
2022/01/19 00:49:56;;;;;;;9.82;5.40;;;3.90;99.90;;;;;;5133623;27;20168;-54
2022/01/19 00:52:21;;;;;;;10.02;5.68;;;3.80;99.90;;;;;;5133249;27;20160;-53
2022/01/19 00:54:47;;;;;;;9.68;5.45;;;3.80;99.90;;;;;;5133210;27;20175;-53
2022/01/19 00:57:13;;;;;;;7.88;5.75;;;3.80;99.90;;;;;;5114686;27;20210;-54
2022/01/19 00:59:38;;;;;;;10.50;5.50;;;3.90;99.90;;;;;;5133190;27;20166;-53
2022/01/19 01:02:05;;;;;;;9.57;6.15;;;3.90;99.90;;;;;;5133066;27;20167;-55
2022/01/19 01:04:32;;;;;;;9.25;5.93;;;3.90;99.90;;;;;;5133164;27;20239;-52
2022/01/19 01:06:58;;;;;;;10.75;5.72;;;4.00;99.90;;;;;;5133298;27;20639;-55
2022/01/19 01:09:23;;;;;;;9.93;6.22;;;3.90;99.90;;;;;;5133084;27;20167;-54
2022/01/19 01:12:09;;;;;;;10.55;6.18;;;3.80;99.90;;;;;;5132908;28;20219;-52
2022/01/19 01:20:06;;;;;;;11.57;6.03;;;3.90;99.90;;;;;;5133027;27;20228;-52
2022/01/19 01:22:32;;;;;;;8.27;5.70;;;3.90;99.90;;;;;;5132923;27;20248;-52
2022/01/19 01:24:57;;;;;;;7.95;5.40;;;3.90;99.90;;;;;;5136971;27;20250;-50
2022/01/19 01:27:23;;;;;;;8.63;6.03;;;3.90;99.90;;;;;;5137088;27;20524;-52
2022/01/19 01:29:49;;;;;;;12.70;6.40;;;3.90;99.90;;;;;;5137094;27;20662;-52
2022/01/19 01:32:14;;;;;;;10.43;6.35;;;4.00;99.90;;;;;;5137022;27;20167;-51
2022/01/19 01:34:40;;;;;;;8.40;5.07;;;4.00;99.90;;;;;;5118473;27;20573;-51
2022/01/19 01:37:05;;;;;;;7.28;5.40;;;3.90;99.90;;;;;;5137034;27;20235;-51
2022/01/19 01:39:31;;;;;;;8.38;5.40;;;4.00;99.90;;;;;;5136920;27;20160;-52
2022/01/19 01:41:56;;;;;;;8.10;5.53;;;4.00;99.90;;;;;;5137098;27;20179;-50
2022/01/19 01:44:22;;;;;;;13.20;6.30;;;4.00;99.90;;;;;;5136768;27;20205;-51
2022/01/19 01:46:56;;;;;;;13.80;6.25;;;4.00;99.90;;;;;;5136689;27;20172;-51
2022/01/19 01:53:16;;;;;;;10.95;6.60;;;4.10;99.90;;;;;;5136870;27;20179;-52
2022/01/19 01:54:52;;;;;;;10.50;6.20;;;4.10;99.90;;;;;;5136469;27;20646;-50
2022/01/19 01:57:18;;;;;;;11.05;7.05;;;4.10;99.90;;;;;;5136394;27;20298;-51
2022/01/19 01:59:43;;;;;;;12.63;7.55;;;4.00;99.90;;;;;;5136509;27;20601;-51
2022/01/19 02:02:09;;;;;;;10.75;7.03;;;4.10;99.90;;;;;;5136409;27;20254;-51
2022/01/19 02:04:40;;;;;;;11.93;7.40;;;4.10;99.90;;;;;;5136422;27;20172;-52
2022/01/19 02:09:40;;;;;;;11.13;7.78;;;4.10;99.90;;;;;;5136609;27;20160;-51
2022/01/19 02:23:23;;;;;;;8.85;7.20;;;4.10;99.90;;;;;;5136331;27;20232;-56
2022/01/19 02:25:57;;;;;;;12.68;7.90;;;4.10;99.90;;;;;;5136336;27;20172;-51
2022/01/19 02:31:47;;;;;;;12.43;9.07;;;4.20;99.90;;;;;;5136169;27;20642;-51
2022/01/19 02:42:16;;;;;;;13.55;9.57;;;4.20;99.90;;;;;;5135719;27;20179;-51
2022/01/19 02:49:55;;;;;;;15.38;10.00;;;4.20;99.90;;;;;;5135729;27;20188;-52
2022/01/19 02:52:23;;;;;;;16.15;11.02;;;4.30;99.90;;;;;;5135462;27;20170;-52
2022/01/19 02:54:49;;;;;;;13.30;11.15;;;4.20;99.90;;;;;;5135779;27;20171;-51
2022/01/19 02:57:15;;;;;;;13.90;9.80;;;4.10;99.90;;;;;;5135568;27;20206;-52
2022/01/19 03:10:34;;;;;;;12.20;9.43;;;4.40;99.90;;;;;;5135374;27;20255;-52
2022/01/19 03:13:00;;;;;;;14.15;10.15;;;4.50;99.90;;;;;;5135116;27;20251;-52
2022/01/19 03:15:27;;;;;;;17.10;10.18;;;4.40;99.90;;;;;;5135326;27;20172;-51
2022/01/19 03:17:57;;;;;;;14.55;9.93;;;4.50;99.90;;;;;;5135296;27;20321;-52
2022/01/19 03:20:23;;;;;;;14.07;9.43;;;4.50;99.90;;;;;;5135245;27;20573;-55
2022/01/19 03:22:58;;;;;;;13.13;10.35;;;4.60;99.90;;;;;;5134831;27;20168;-54
2022/01/19 03:25:24;;;;;;;17.00;9.65;;;4.60;99.90;;;;;;5134735;27;20541;-55
2022/01/19 03:27:50;;;;;;;17.00;10.93;;;4.60;99.90;;;;;;5134780;27;20239;-56
2022/01/19 03:30:18;;;;;;;14.40;9.57;;;4.60;99.90;;;;;;5134767;27;20172;-55
2022/01/19 03:32:43;;;;;;;14.77;9.63;;;4.60;99.90;;;;;;5134750;27;20177;-55
2022/01/19 03:35:10;;;;;;;11.43;9.00;;;4.50;99.90;;;;;;5134574;27;20168;-56
2022/01/19 03:37:36;;;;;;;13.43;9.55;;;4.60;99.90;;;;;;5134440;27;20696;-53
2022/01/19 03:40:03;;;;;;;15.70;9.30;;;4.70;99.90;;;;;;5134530;27;20163;-54
2022/01/19 03:42:29;;;;;;;11.00;9.18;;;4.70;99.90;;;;;;5134782;27;20204;-56
2022/01/19 03:44:55;;;;;;;10.95;8.13;;;4.70;99.90;;;;;;5134474;27;20199;-55
2022/01/19 03:47:20;;;;;;;12.35;8.90;;;4.60;99.90;;;;;;5133412;27;20168;-52
2022/01/19 03:49:46;;;;;;;14.13;9.55;;;4.60;99.90;;;;;;5134340;27;20168;-53
2022/01/19 03:52:11;;;;;;;12.52;9.25;;;4.60;99.90;;;;;;5134304;27;20243;-53
2022/01/19 03:54:40;;;;;;;11.80;9.07;;;4.60;99.90;;;;;;5134201;27;20175;-52
2022/01/19 03:57:06;;;;;;;12.55;9.23;;;4.70;99.90;;;;;;5134298;27;20396;-55
2022/01/19 03:59:32;;;;;;;11.68;8.95;;;4.70;99.90;;;;;;5133853;27;20276;-55
2022/01/19 04:01:58;;;;;;;10.30;7.75;;;4.60;99.90;;;;;;5134127;27;20211;-51
2022/01/19 04:09:19;;;;;;;10.35;8.23;;;4.60;99.90;;;;;;5133751;27;20182;-51
2022/01/19 04:11:45;;;;;;;8.60;6.97;;;4.60;99.90;;;;;;5133741;27;20702;-52
2022/01/19 04:16:36;;;;;;;10.80;6.97;;;4.60;99.90;;;;;;5134081;27;20210;-55
2022/01/19 04:21:46;;;;;;;7.95;6.50;;;4.70;99.90;;;;;;5134017;27;20171;-51
2022/01/19 04:24:11;;;;;;;6.82;5.97;;;4.70;99.90;;;;;;5133764;27;20172;-52
2022/01/19 04:26:37;;;;;;;11.38;5.90;;;4.80;99.90;;;;;;5133568;27;20172;-50
2022/01/19 04:29:03;;;;;;;6.68;5.95;;;4.80;99.90;;;;;;5133592;27;20247;-55
2022/01/19 04:31:28;;;;;;;6.78;6.00;;;4.80;99.90;;;;;;5133873;27;20167;-53
2022/01/19 04:33:59;;;;;;;7.65;5.88;;;4.80;99.90;;;;;;5133443;27;20168;-53
2022/01/19 04:39:21;;;;;;;8.18;6.63;;;4.80;99.90;;;;;;5133688;27;20164;-52
2022/01/19 04:44:56;;;;;;;9.68;6.63;;;4.90;99.90;;;;;;5133703;27;20255;-53
2022/01/19 05:04:13;;;;;;;4.82;4.43;;;4.90;99.90;;;;;;5133132;27;20276;-55
2022/01/19 05:06:38;;;;;;;4.93;4.53;;;4.90;99.90;;;;;;5132221;27;20164;-54
2022/01/19 05:09:56;;;;;;;4.90;3.97;;;4.90;99.90;;;;;;5132985;27;20685;-54
2022/01/19 05:14:37;;;;;;;5.72;4.00;;;4.90;99.90;;;;;;5132983;27;20641;-52
2022/01/19 05:17:03;;;;;;;4.53;4.13;;;4.80;99.90;;;;;;5132901;27;20207;-51
2022/01/19 05:19:28;;;;;;;5.13;4.40;;;4.90;99.90;;;;;;5114877;28;20163;-49
2022/01/19 05:21:54;;;;;;;6.40;5.10;;;4.90;99.90;;;;;;5132909;27;20206;-51
2022/01/19 05:24:19;;;;;;;6.95;5.45;;;4.90;99.90;;;;;;5132941;27;21232;-53
2022/01/19 05:26:46;;;;;;;7.63;5.35;;;4.90;99.90;;;;;;5132858;28;20199;-51
2022/01/19 05:29:11;;;;;;;8.18;4.82;;;4.90;99.90;;;;;;5133030;27;20179;-53
2022/01/19 05:31:37;;;;;;;5.40;4.60;;;4.90;99.90;;;;;;5132830;28;20168;-51
2022/01/19 05:34:03;;;;;;;8.13;6.10;;;4.90;99.90;;;;;;5132947;28;20171;-52
2022/01/19 05:36:28;;;;;;;10.55;6.68;;;4.90;99.90;;;;;;5133317;27;20196;-52
2022/01/19 05:38:54;;;;;;;11.15;7.80;;;4.90;99.90;;;;;;5132774;27;20563;-53
2022/01/19 05:41:21;;;;;;;9.75;7.70;;;4.80;99.90;;;;;;5132646;27;20160;-51
2022/01/19 05:43:47;;;;;;;9.02;7.47;;;4.80;99.90;;;;;;5132963;27;20249;-52
2022/01/19 05:46:12;;;;;;;10.32;7.15;;;4.80;99.90;;;;;;5132650;27;20164;-49
2022/01/19 05:48:38;;;;;;;11.95;8.27;;;4.80;99.90;;;;;;5132641;27;20168;-49
2022/01/19 05:51:03;;;;;;;10.43;7.07;;;4.80;99.90;;;;;;5132509;27;20195;-53
2022/01/19 05:53:29;;;;;;;12.93;8.68;;;4.80;99.90;;;;;;5132908;27;20200;-48
2022/01/19 05:55:54;;;;;;;11.30;7.80;;;4.80;99.90;;;;;;5132590;27;20267;-48
2022/01/19 05:58:20;;;;;;;11.85;7.03;;;4.80;99.90;;;;;;5132764;27;20172;-48
2022/01/19 06:00:45;;;;;;;10.57;7.63;;;4.80;99.90;;;;;;5132545;27;20160;-52
2022/01/19 06:03:11;;;;;;;15.50;7.15;;;4.80;99.90;;;;;;5132497;27;20160;-50
2022/01/19 06:05:37;;;;;;;10.65;7.32;;;4.70;99.90;;;;;;5132759;27;20204;-52
2022/01/19 06:08:16;;;;;;;11.07;7.70;;;4.70;99.90;;;;;;5132391;27;20225;-49
2022/01/19 06:10:42;;;;;;;9.10;7.03;;;4.80;99.90;;;;;;5135340;27;20168;-50
2022/01/19 06:13:08;;;;;;;10.55;8.07;;;4.70;99.90;;;;;;5136213;27;20164;-52
2022/01/19 06:15:34;;;;;;;10.43;6.82;;;4.80;99.90;;;;;;5136200;27;20152;-51
2022/01/19 06:18:00;;;;;;;12.25;7.53;;;4.80;99.90;;;;;;5136435;27;20627;-52
2022/01/19 06:20:26;;;;;;;9.10;7.28;;;4.80;99.90;;;;;;5136328;27;20163;-52
2022/01/19 06:22:52;;;;;;;9.05;7.60;;;4.80;99.90;;;;;;5135967;27;20160;-51
2022/01/19 06:25:18;;;;;;;14.48;7.82;;;4.70;99.90;;;;;;5136113;27;20182;-55
2022/01/19 06:27:44;;;;;;;12.80;7.68;;;4.80;99.90;;;;;;5135476;27;20160;-50
2022/01/19 06:30:10;;;;;;;13.63;7.47;;;4.80;99.90;;;;;;5135784;27;20156;-51
2022/01/19 06:32:35;;;;;;;12.23;7.40;;;4.80;99.90;;;;;;5135867;27;20671;-52
2022/01/19 06:35:01;;;;;;;11.40;7.72;;;4.80;99.90;;;;;;5135786;27;20195;-50
2022/01/19 06:37:26;;;;;;;11.80;7.50;;;4.80;99.90;;;;;;5135988;27;20203;-49
2022/01/19 06:39:52;;;;;;;11.43;6.78;;;4.80;99.90;;;;;;5134458;27;20205;-52
2022/01/19 06:42:18;;;;;;;10.27;7.50;;;4.80;99.90;;;;;;5133890;27;20219;-51
2022/01/19 06:44:43;;;;;;;11.50;7.25;;;4.80;99.90;;;;;;5133608;27;20174;-51
2022/01/19 06:47:09;;;;;;;9.25;6.70;;;4.80;99.90;;;;;;5133973;27;20199;-50
2022/01/19 06:49:34;;;;;;;9.52;7.15;;;4.80;99.90;;;;;;5133844;27;20284;-49
2022/01/19 06:52:01;;;;;;;11.18;6.72;;;4.80;99.90;;;;;;5134195;27;20497;-49
2022/01/19 06:54:27;;;;;;;11.52;7.72;;;4.80;99.90;;;;;;5116679;27;20176;-48
2022/01/19 06:56:52;;;;;;;8.38;7.10;;;4.80;99.90;;;;;;5135437;27;20264;-49
2022/01/19 06:59:18;;;;;;;11.27;7.28;;;4.80;99.90;;;;;;5135317;27;20172;-50
2022/01/19 07:01:43;;;;;;;10.38;6.85;;;4.80;99.90;;;;;;5135242;27;20163;-52
2022/01/19 07:04:11;;;;;;;11.60;7.05;;;4.90;99.90;;;;;;5135084;27;20208;-53
2022/01/19 07:06:37;;;;;;;9.93;6.68;;;4.90;99.90;;;;;;5135279;27;20551;-52
2022/01/19 07:09:03;;;;;;;10.30;7.20;;;4.90;99.90;;;;;;5134935;27;20164;-51
2022/01/19 07:11:28;;;;;;;12.07;7.53;;;4.90;99.90;;;;;;5135131;27;20227;-49
2022/01/19 07:13:54;;;;;;;8.35;6.43;;;4.90;99.90;;;;;;5134824;27;20168;-52
2022/01/19 07:16:20;;;;;;;9.55;7.07;;;4.80;99.90;;;;;;5135114;27;20200;-52
2022/01/19 07:18:45;;;;;;;9.20;7.20;;;4.80;99.90;;;;;;5134929;27;20696;-54
2022/01/19 07:21:11;;;;;;;10.60;6.65;;;4.80;99.90;;;;;;5134775;27;20155;-53
2022/01/19 07:23:36;;;;;;;11.65;7.82;;;4.80;99.90;;;;;;5134792;27;20663;-55
2022/01/19 07:26:02;;;;;;;11.93;7.78;;;4.70;99.90;;;;;;5116371;27;20198;-53
2022/01/19 07:28:28;;;;;;;11.38;7.32;;;4.70;99.90;;;;;;5135039;27;20168;-55
2022/01/19 07:30:53;;;;;;;12.30;8.02;;;4.70;99.90;;;;;;5134644;27;20534;-53
2022/01/19 07:33:19;;;;;;;9.63;7.38;;;4.70;99.90;;;;;;5134571;27;20649;-52
2022/01/19 07:35:45;;;;;;;11.88;7.53;;;4.70;99.90;;;;;;5134457;27;20643;-51
2022/01/19 07:38:11;;;;;;;8.80;6.63;;;4.70;99.90;;;;;;5134700;27;20187;-51
2022/01/19 07:40:37;;;;;;;8.25;7.07;;;4.70;99.90;;;;;;5134467;27;20164;-52
2022/01/19 07:43:02;;;;;;;7.90;6.43;;;4.80;99.90;;;;;;5134350;27;20203;-54
2022/01/19 07:45:28;;;;;;;7.55;6.05;;;4.80;99.90;;;;;;5134656;27;20156;-52
2022/01/19 07:47:54;;;;;;;8.52;6.72;;;4.80;99.90;;;;;;5134332;27;20619;-54
2022/01/19 07:50:20;;;;;;;7.72;6.93;;;4.80;99.90;;;;;;5134194;27;20156;-51
2022/01/19 07:52:46;;;;;;;12.52;7.05;;;4.80;99.90;;;;;;5134221;27;20247;-51
2022/01/19 07:55:11;;;;;;;8.80;6.82;;;4.90;99.90;;;;;;5134208;27;20646;-54
2022/01/19 07:57:40;;;;;;;10.77;6.85;;;4.90;99.90;;;;;;5134112;27;20211;-51
2022/01/19 08:00:07;;;;;;;12.48;6.25;;;4.90;99.90;;;;;;5134311;27;20163;-52
2022/01/19 08:02:33;;;;;;;10.43;7.05;;;4.90;99.90;;;;;;5133999;27;20642;-52
2022/01/19 08:04:59;;;;;;;9.55;7.15;;;4.90;99.90;;;;;;5134189;27;20160;-54
2022/01/19 08:07:25;;;;;;;14.98;6.75;;;4.90;99.90;;;;;;5134306;27;20190;-50
2022/01/19 08:09:50;;;;;;;11.52;6.57;;;4.90;99.90;;;;;;5133798;27;20557;-53
2022/01/19 08:12:16;;;;;;;9.95;6.85;;;4.90;99.90;;;;;;5133740;27;20211;-53
2022/01/19 08:14:41;;;;;;;11.00;7.25;;;4.90;99.90;;;;;;5133998;27;20167;-53
2022/01/19 08:17:07;;;;;;;12.18;8.10;;;4.90;99.90;;;;;;5133520;27;20572;-54
2022/01/19 08:19:33;;;;;;;10.13;7.65;;;4.90;99.90;;;;;;5133493;27;20681;-54
2022/01/19 08:21:59;;;;;;;10.63;7.05;;;4.90;99.90;;;;;;5133971;27;20164;-53
2022/01/19 08:24:25;;;;;;;9.98;7.15;;;4.90;99.90;;;;;;5133864;27;20213;-54
2022/01/19 08:26:54;;;;;;;11.80;7.13;;;4.90;99.90;;;;;;5133743;27;20179;-52
2022/01/19 08:29:20;;;;;;;12.38;7.70;;;4.90;99.90;;;;;;5133702;27;20175;-53
2022/01/19 08:31:45;;;;;;;10.85;7.30;;;5.00;99.90;;;;;;5133167;27;20168;-53
2022/01/19 08:34:11;;;;;;;16.83;6.78;;;4.90;99.90;;;;;;5133036;27;20160;-53
2022/01/19 08:36:37;;;;;;;16.85;8.00;;;4.90;99.90;;;;;;5133270;27;20211;-53
2022/01/19 08:39:03;;;;;;;16.30;6.95;;;4.90;99.90;;;;;;5133342;27;20164;-54
2022/01/19 08:41:29;;;;;;;19.10;7.60;;;4.90;99.90;;;;;;5133852;27;20171;-53
2022/01/19 08:43:55;;;;;;;11.27;7.20;;;4.90;99.90;;;;;;5133479;27;20168;-54
2022/01/19 08:46:21;;;;;;;10.80;7.00;;;4.90;99.90;;;;;;5133167;27;20171;-54
2022/01/19 08:48:46;;;;;;;12.27;7.63;;;4.90;99.90;;;;;;5133131;27;20252;-55
2022/01/19 08:51:12;;;;;;;15.82;7.40;;;5.00;99.90;;;;;;5133097;27;20286;-55
2022/01/19 08:53:38;;;;;;;12.65;7.05;;;5.00;99.90;;;;;;5133104;27;20179;-52
2022/01/19 08:56:03;;;;;;;11.93;7.55;;;5.00;99.90;;;;;;5133027;27;20191;-55
2022/01/19 08:58:29;;;;;;;10.07;8.02;;;5.00;99.90;;;;;;5133400;27;20254;-54
2022/01/19 09:00:54;;;;;;;12.25;7.00;;;5.00;99.90;;;;;;5133088;27;20262;-54
2022/01/19 09:03:20;;;;;;;9.65;8.25;;;5.00;99.90;;;;;;5132975;27;20251;-54
2022/01/19 09:05:46;;;;;;;9.52;7.20;;;5.00;99.90;;;;;;5133125;27;20243;-54
2022/01/19 09:08:12;;;;;;;10.57;7.65;;;5.10;99.90;;;;;;5132903;27;20168;-53
2022/01/19 09:10:40;;;;;;;9.45;7.80;;;5.20;99.90;;;;;;5132731;27;20160;-52
2022/01/19 09:13:05;;;;;;;8.88;7.50;;;5.20;99.90;;;;;;5133036;27;20179;-54
2022/01/19 09:15:31;;;;;;;10.20;7.50;;;5.20;99.90;;;;;;5132721;27;20172;-54
2022/01/19 09:17:57;;;;;;;10.18;7.75;;;5.20;99.90;;;;;;5133044;27;20195;-54
2022/01/19 09:20:22;;;;;;;10.73;7.13;;;5.30;99.90;;;;;;5114400;28;20655;-52
2022/01/19 09:22:49;;;;;;;9.13;7.28;;;5.40;99.90;;;;;;5133123;27;20168;-54
2022/01/19 09:25:15;;;;;;;10.60;6.93;;;5.30;99.90;;;;;;5133079;28;20255;-47
2022/01/19 09:27:41;;;;;;;15.38;13.00;;;5.40;99.90;;;;;;5132995;28;20168;-50
2022/01/19 09:30:09;;;;;;;10.52;7.50;;;5.40;99.90;;;;;;5129992;27;20529;-51
2022/01/19 09:32:35;;;;;;;15.18;9.57;;;5.30;99.90;;;;;;5151829;27;20189;-50
2022/01/19 09:35:07;;;;;;;32.80;17.90;;;5.30;99.90;;;;;;5151981;27;20661;-51
2022/01/19 09:37:34;;;;;;;44.05;24.13;;;5.30;99.90;;;;;;5151959;27;20752;-52
2022/01/19 09:40:00;;;;;;;33.35;17.95;;;5.40;99.90;;;;;;5152091;27;20167;-52
2022/01/19 09:42:25;;;;;;;19.52;10.38;;;5.40;99.90;;;;;;5152465;27;20179;-48
2022/01/19 09:44:52;;;;;;;19.60;9.48;;;5.30;99.90;;;;;;5153081;27;20167;-47
2022/01/19 09:47:18;;;;;;;12.80;8.23;;;5.30;99.90;;;;;;5154754;27;20242;-51
2022/01/19 09:49:44;;;;;;;10.57;8.40;;;5.20;99.90;;;;;;5121661;27;20251;-47
2022/01/19 09:52:09;;;;;;;18.83;11.93;;;5.20;99.90;;;;;;5145676;27;20657;-49
2022/01/19 09:54:36;;;;;;;27.67;15.45;;;5.20;99.90;;;;;;5140944;27;20235;-52
2022/01/19 09:57:02;;;;;;;22.88;14.45;;;5.20;99.90;;;;;;5155354;27;20202;-50
2022/01/19 09:59:28;;;;;;;20.02;11.85;;;5.20;99.90;;;;;;5135578;27;20165;-54
2022/01/19 10:02:03;;;;;;;10.90;8.82;;;5.20;99.90;;;;;;5134894;27;20213;-54
2022/01/19 10:04:34;;;;;;;16.65;8.85;;;5.20;99.90;;;;;;5135288;27;20168;-51
2022/01/19 10:07:21;;;;;;;14.73;8.90;;;5.20;99.90;;;;;;5134623;27;20156;-53
2022/01/19 10:09:51;;;;;;;16.77;9.45;;;5.20;99.90;;;;;;5135004;27;20547;-54
2022/01/19 10:18:15;;;;;;;11.57;8.63;;;5.20;99.90;;;;;;5135213;27;20313;-57
2022/01/19 10:20:42;;;;;;;12.27;9.63;;;5.20;99.90;;;;;;5134881;27;20198;-54
2022/01/19 10:23:33;;;;;;;13.23;8.95;;;5.20;99.90;;;;;;5134567;27;20247;-55
2022/01/19 10:26:00;;;;;;;14.00;9.85;;;5.20;99.90;;;;;;5134671;27;20215;-61
2022/01/19 10:28:26;;;;;;;13.68;9.40;;;5.20;99.90;;;;;;5134734;27;20179;-63
2022/01/19 10:30:52;;;;;;;15.00;9.20;;;5.30;99.90;;;;;;5134737;27;20203;-54
2022/01/19 10:33:19;;;;;;;12.77;9.80;;;5.30;99.90;;;;;;5134544;27;20580;-60
2022/01/19 10:35:48;;;;;;;12.25;8.27;;;5.30;99.90;;;;;;5134405;27;20160;-63
2022/01/19 10:38:28;;;;;;;12.05;8.82;;;5.30;99.90;;;;;;5134407;27;20679;-58
2022/01/19 10:41:03;;;;;;;10.35;8.18;;;5.40;99.90;;;;;;5134415;27;20308;-57
2022/01/19 10:43:40;;;;;;;13.90;9.10;;;5.30;99.90;;;;;;5134729;27;20690;-51
2022/01/19 10:46:27;;;;;;;13.35;10.27;;;5.30;99.90;;;;;;5134537;27;20182;-61
2022/01/19 10:49:08;;;;;;;18.30;11.27;;;5.40;99.90;;;;;;5134319;27;20179;-54
2022/01/19 10:51:46;;;;;;;17.85;12.10;;;5.50;99.90;;;;;;5134453;27;20160;-63
2022/01/19 10:54:24;;;;;;;19.70;13.40;;;5.40;99.90;;;;;;5134279;27;20251;-60
2022/01/19 10:56:54;;;;;;;17.95;11.90;;;5.40;99.90;;;;;;5133992;27;20210;-54
2022/01/19 10:59:26;;;;;;;22.50;15.80;;;5.40;99.90;;;;;;5134318;27;20180;-55
2022/01/19 11:01:55;;;;;;;25.35;17.52;;;5.40;99.90;;;;;;5133851;27;20156;-46
2022/01/19 11:04:35;;;;;;;21.00;14.73;;;5.40;99.90;;;;;;5134146;27;20171;-52
2022/01/19 11:07:09;;;;;;;21.25;13.93;;;5.50;99.90;;;;;;5133632;27;20167;-43
2022/01/19 11:10:01;;;;;;;18.35;13.25;;;5.50;99.90;;;;;;5133946;27;20236;-45
2022/01/19 11:12:30;;;;;;;17.50;13.70;;;5.40;99.90;;;;;;5133873;27;20238;-46
2022/01/19 11:14:56;;;;;;;18.10;12.52;;;5.50;99.90;;;;;;5134256;27;20227;-46
2022/01/19 11:17:22;;;;;;;19.70;12.48;;;5.50;99.90;;;;;;5133491;27;20211;-47
2022/01/19 11:19:49;;;;;;;12.55;9.50;;;5.50;99.90;;;;;;5133716;27;20564;-46
2022/01/19 11:22:35;;;;;;;19.50;10.40;;;5.40;99.90;;;;;;5133607;27;20263;-46
2022/01/19 11:25:07;;;;;;;11.15;9.05;;;5.40;99.90;;;;;;5133312;27;20164;-45
2022/01/19 11:27:45;;;;;;;15.73;9.93;;;5.50;99.90;;;;;;5133413;27;20168;-46
2022/01/19 11:30:30;;;;;;;14.98;10.25;;;5.50;99.90;;;;;;5133292;27;20171;-47
2022/01/19 11:33:12;;;;;;;13.57;9.45;;;5.50;99.90;;;;;;5133323;27;20539;-46
2022/01/19 11:35:39;;;;;;;15.40;9.77;;;5.50;99.90;;;;;;5132850;27;20191;-48
2022/01/19 11:38:28;;;;;;;15.00;10.52;;;5.60;99.90;;;;;;5133029;27;20195;-45
2022/01/19 11:40:53;;;;;;;12.52;9.85;;;5.60;99.90;;;;;;5133423;27;20168;-50
2022/01/19 11:43:25;;;;;;;13.32;10.65;;;5.60;99.90;;;;;;5132872;27;20224;-46
2022/01/19 11:45:51;;;;;;;13.65;9.60;;;5.60;99.90;;;;;;5133377;27;20175;-46
2022/01/19 11:48:22;;;;;;;13.98;9.63;;;5.50;99.90;;;;;;5133026;27;20171;-48
2022/01/19 11:50:49;;;;;;;14.68;10.57;;;5.50;99.90;;;;;;5132671;27;20529;-51
2022/01/19 11:53:15;;;;;;;14.68;9.75;;;5.40;99.90;;;;;;5133015;27;20592;-46
2022/01/19 11:55:59;;;;;;;12.98;10.07;;;5.50;99.90;;;;;;5132924;27;20178;-50
2022/01/19 11:58:26;;;;;;;13.15;10.25;;;5.60;99.90;;;;;;5132542;27;20184;-48
2022/01/19 12:00:55;;;;;;;16.42;11.25;;;5.50;99.90;;;;;;5132693;27;20166;-51
2022/01/19 12:03:23;;;;;;;18.38;11.77;;;5.50;99.90;;;;;;5133107;27;20248;-48
2022/01/19 12:05:51;;;;;;;16.02;10.38;;;5.50;99.90;;;;;;5133095;27;20168;-45
2022/01/19 12:08:36;;;;;;;13.18;9.55;;;5.40;99.90;;;;;;5131905;27;20185;-48
2022/01/19 12:11:12;;;;;;;17.33;9.55;;;5.50;99.90;;;;;;5132472;27;20211;-45
2022/01/19 12:16:37;;;;;;;16.02;9.95;;;5.50;99.90;;;;;;5133477;27;20168;-49
2022/01/19 12:19:08;;;;;;;19.45;10.45;;;5.40;99.90;;;;;;5134067;27;20285;-52
2022/01/19 12:21:34;;;;;;;22.17;10.82;;;5.50;99.90;;;;;;5133886;27;20164;-46
2022/01/19 12:24:19;;;;;;;17.08;10.60;;;5.50;99.90;;;;;;5134145;27;20304;-49
2022/01/19 12:26:58;;;;;;;14.90;10.57;;;5.40;99.90;;;;;;5133783;27;20262;-49
2022/01/19 12:29:38;;;;;;;17.55;9.77;;;5.40;99.90;;;;;;5133512;27;20623;-46
2022/01/19 12:32:16;;;;;;;18.27;10.45;;;5.40;99.90;;;;;;5133453;27;20174;-47
2022/01/19 12:34:52;;;;;;;18.92;10.13;;;5.30;99.90;;;;;;5133397;27;20156;-46
2022/01/19 12:37:27;;;;;;;17.95;10.82;;;5.40;99.90;;;;;;5133284;27;20271;-53
2022/01/19 12:39:54;;;;;;;15.88;10.98;;;5.40;99.90;;;;;;5132554;27;20652;-51
2022/01/19 12:42:26;;;;;;;14.38;10.57;;;5.30;99.90;;;;;;5132689;27;20172;-49
2022/01/19 12:44:58;;;;;;;17.92;12.32;;;5.30;99.90;;;;;;5133082;27;20202;-47
2022/01/19 12:47:29;;;;;;;22.10;13.07;;;5.40;99.90;;;;;;5133138;27;20659;-50
2022/01/19 12:50:17;;;;;;;17.85;11.25;;;5.40;99.90;;;;;;5133404;27;20640;-48
2022/01/19 12:52:52;;;;;;;14.45;10.77;;;5.30;99.90;;;;;;5081014;27;20203;-48
2022/01/19 12:55:20;;;;;;;20.58;9.82;;;5.30;99.90;;;;;;5133326;27;20261;-54
2022/01/19 12:57:46;;;;;;;16.70;12.60;;;5.30;99.90;;;;;;5133045;27;20202;-49
2022/01/19 13:00:15;;;;;;;16.70;11.70;;;5.40;99.90;;;;;;5133021;27;20171;-48
2022/01/19 13:02:41;;;;;;;14.63;10.20;;;5.40;99.90;;;;;;5132983;27;20627;-46
2022/01/19 13:05:13;;;;;;;19.80;12.43;;;5.30;99.90;;;;;;5132938;27;20179;-51
2022/01/19 13:07:42;;;;;;;17.90;11.50;;;5.30;99.90;;;;;;5133120;27;20427;-50
2022/01/19 13:12:55;;;;;;;19.02;11.15;;;5.40;99.90;;;;;;5132705;27;20216;-49
2022/01/19 13:15:22;;;;;;;17.77;12.20;;;5.40;99.90;;;;;;5132992;27;20195;-52
2022/01/19 13:17:50;;;;;;;16.05;10.82;;;5.40;99.90;;;;;;5132797;28;20616;-49
2022/01/19 13:20:20;;;;;;;19.10;11.18;;;5.40;99.90;;;;;;5139311;27;20598;-53
2022/01/19 13:22:53;;;;;;;21.25;11.73;;;5.30;99.90;;;;;;5139277;27;20260;-50
2022/01/19 13:25:25;;;;;;;17.73;12.00;;;5.40;99.90;;;;;;5139596;27;20163;-52
2022/01/19 13:27:55;;;;;;;20.13;12.23;;;5.40;99.90;;;;;;5139925;27;20557;-52
2022/01/19 13:30:21;;;;;;;20.02;12.43;;;5.40;99.90;;;;;;5139567;27;20619;-54
2022/01/19 13:32:47;;;;;;;17.95;12.18;;;5.40;99.90;;;;;;5139707;27;20164;-51
2022/01/19 13:35:13;;;;;;;16.85;11.10;;;5.50;99.90;;;;;;5139573;27;20611;-53
2022/01/19 13:37:54;;;;;;;19.33;13.25;;;5.40;99.90;;;;;;5139875;27;20211;-53
2022/01/19 13:40:26;;;;;;;17.00;11.90;;;5.40;99.90;;;;;;5139944;27;20167;-53
2022/01/19 13:43:04;;;;;;;17.10;12.35;;;5.40;99.90;;;;;;5139914;27;20176;-45
2022/01/19 13:50:36;;;;;;;17.85;11.95;;;5.30;99.90;;;;;;5139726;27;20172;-52
2022/01/19 13:53:02;;;;;;;17.85;11.85;;;5.30;99.90;;;;;;5139756;27;20168;-45
2022/01/19 13:55:29;;;;;;;23.35;13.57;;;5.30;99.90;;;;;;5139679;27;20170;-44
2022/01/19 13:58:10;;;;;;;16.48;11.70;;;5.30;99.90;;;;;;5139593;27;20294;-45
2022/01/19 14:00:54;;;;;;;21.83;12.95;;;5.20;99.90;;;;;;5139627;27;20186;-46
2022/01/19 14:03:22;;;;;;;18.55;13.10;;;5.20;99.90;;;;;;5139205;27;20361;-46
2022/01/19 14:05:53;;;;;;;17.33;12.30;;;5.10;99.90;;;;;;5139244;27;20160;-55
2022/01/19 14:08:29;;;;;;;20.00;13.50;;;5.10;99.90;;;;;;5139303;27;20195;-56
2022/01/19 14:10:54;;;;;;;21.98;14.07;;;5.00;99.90;;;;;;5139256;27;20221;-54
2022/01/19 14:13:23;;;;;;;23.30;14.45;;;5.10;99.90;;;;;;5139050;27;20251;-56
2022/01/19 14:15:48;;;;;;;17.80;11.05;;;5.00;99.90;;;;;;5139245;27;20160;-56
2022/01/19 14:18:14;;;;;;;20.50;13.05;;;5.00;99.90;;;;;;5138815;27;20262;-55
2022/01/19 14:20:40;;;;;;;23.20;14.40;;;5.00;99.90;;;;;;5139291;27;20206;-55
2022/01/19 14:23:11;;;;;;;21.85;13.43;;;5.10;99.90;;;;;;5139111;27;20164;-56
2022/01/19 14:25:37;;;;;;;17.83;11.57;;;5.00;99.90;;;;;;5139167;27;20160;-53
2022/01/19 14:28:15;;;;;;;21.50;14.75;;;5.00;99.90;;;;;;5139095;27;20174;-55
2022/01/19 14:30:42;;;;;;;23.05;14.65;;;5.00;99.90;;;;;;5136535;27;20251;-56
2022/01/19 14:33:14;;;;;;;25.98;14.82;;;5.00;99.90;;;;;;5135418;27;20611;-57